Time;durP1;ratioP1;P1;durP2;ratioP2;P2;SDS_P1;SDS_P2;PMS_P1;PMS_P2;Temp;Humidity;BMP_temperature;BMP_pressure;BME280_temperature;BME280_humidity;BME280_pressure;Samples;Min_cycle;Max_cycle;Signal;HPM_P1;HPM_P2
2023/01/03 00:01:29;;;;;;;0.33;0.33;;;;;;;;;;5058995;28;20203;-65
2023/01/03 00:03:57;;;;;;;0.37;0.37;;;;;;;;;;5056444;28;20200;-65
2023/01/03 00:06:25;;;;;;;1.80;0.60;;;;;;;;;;5063176;28;20195;-64
2023/01/03 00:08:52;;;;;;;0.43;0.43;;;;;;;;;;5048748;28;20717;-64
2023/01/03 00:12:22;;;;;;;0.40;0.40;;;;;;;;;;5058038;28;20203;-63
2023/01/03 00:14:07;;;;;;;0.50;0.50;;;;;;;;;;5068150;28;20199;-63
2023/01/03 00:16:35;;;;;;;0.60;0.60;;;;;;;;;;5067375;28;20200;-63
2023/01/03 00:19:05;;;;;;;0.47;0.47;;;;;;;;;;5052565;28;20666;-64
2023/01/03 00:21:33;;;;;;;0.30;0.30;;;;;;;;;;5061840;28;20206;-64
2023/01/03 00:24:00;;;;;;;0.50;0.50;;;;;;;;;;5065826;28;20222;-64
2023/01/03 00:26:27;;;;;;;0.47;0.47;;;;;;;;;;5061914;28;20212;-63
2023/01/03 00:28:54;;;;;;;0.33;0.33;;;;;;;;;;5070978;28;20670;-63
2023/01/03 00:31:21;;;;;;;0.40;0.40;;;;;;;;;;5064910;28;20203;-63
2023/01/03 00:33:49;;;;;;;0.40;0.40;;;;;;;;;;5059083;28;20207;-64
2023/01/03 00:36:17;;;;;;;1.13;0.50;;;;;;;;;;5063430;28;20269;-63
2023/01/03 00:38:44;;;;;;;0.50;0.50;;;;;;;;;;5072037;28;20214;-63
2023/01/03 00:41:11;;;;;;;0.40;0.40;;;;;;;;;;5067342;28;20207;-63
2023/01/03 00:43:39;;;;;;;0.47;0.40;;;;;;;;;;5072315;28;20207;-63
2023/01/03 00:46:07;;;;;;;0.60;0.60;;;;;;;;;;5068712;28;20223;-63
2023/01/03 00:48:34;;;;;;;0.50;0.50;;;;;;;;;;5064271;28;20207;-65
2023/01/03 00:51:07;;;;;;;0.40;0.40;;;;;;;;;;5068926;28;20231;-63
2023/01/03 00:53:34;;;;;;;0.40;0.40;;;;;;;;;;5070407;28;20204;-63
2023/01/03 00:56:02;;;;;;;0.43;0.43;;;;;;;;;;5053940;28;20223;-63
2023/01/03 00:58:30;;;;;;;0.90;0.70;;;;;;;;;;5060756;28;20207;-64
2023/01/03 01:00:57;;;;;;;0.43;0.43;;;;;;;;;;5068200;28;20202;-64
2023/01/03 01:03:24;;;;;;;0.50;0.50;;;;;;;;;;5070554;28;20241;-63
2023/01/03 01:05:51;;;;;;;1.90;0.60;;;;;;;;;;5071421;28;20199;-63
2023/01/03 01:08:19;;;;;;;1.10;0.50;;;;;;;;;;5062399;28;20207;-64
2023/01/03 01:11:00;;;;;;;0.73;0.73;;;;;;;;;;5057870;28;20239;-63
2023/01/03 01:13:28;;;;;;;0.73;0.73;;;;;;;;;;5052827;28;20204;-63
2023/01/03 01:15:55;;;;;;;0.63;0.63;;;;;;;;;;5062116;28;20210;-63
2023/01/03 01:18:22;;;;;;;0.93;0.93;;;;;;;;;;5067705;28;20214;-63
2023/01/03 01:20:49;;;;;;;0.80;0.80;;;;;;;;;;5051823;28;20199;-63
2023/01/03 01:23:16;;;;;;;0.90;0.90;;;;;;;;;;5050389;28;20223;-63
2023/01/03 01:25:44;;;;;;;0.67;0.67;;;;;;;;;;5056070;28;20264;-63
2023/01/03 01:28:11;;;;;;;0.90;0.90;;;;;;;;;;5067832;28;20266;-63
2023/01/03 01:30:38;;;;;;;0.90;0.90;;;;;;;;;;5060193;28;20654;-63
2023/01/03 01:33:06;;;;;;;0.80;0.80;;;;;;;;;;5052024;28;20211;-63
2023/01/03 01:35:33;;;;;;;0.90;0.90;;;;;;;;;;5051297;28;20208;-64
2023/01/03 01:38:00;;;;;;;0.90;0.90;;;;;;;;;;5051078;28;20262;-64
2023/01/03 01:40:27;;;;;;;0.80;0.80;;;;;;;;;;5058215;28;20203;-64
2023/01/03 01:45:40;;;;;;;1.00;1.00;;;;;;;;;;5061568;28;20202;-63
2023/01/03 01:48:08;;;;;;;0.90;0.90;;;;;;;;;;5051079;28;20226;-63
2023/01/03 01:50:36;;;;;;;0.80;0.80;;;;;;;;;;5051266;28;20843;-64
2023/01/03 01:53:05;;;;;;;1.23;1.23;;;;;;;;;;5065979;28;20234;-63
2023/01/03 01:55:33;;;;;;;1.23;0.87;;;;;;;;;;5068001;28;20219;-63
2023/01/03 01:58:01;;;;;;;1.40;1.40;;;;;;;;;;5055588;28;20200;-64
2023/01/03 02:00:29;;;;;;;1.10;1.10;;;;;;;;;;5067427;28;20681;-63
2023/01/03 02:02:56;;;;;;;1.67;1.57;;;;;;;;;;5066580;28;20203;-64
2023/01/03 02:05:23;;;;;;;1.23;1.13;;;;;;;;;;5064555;28;20203;-64
2023/01/03 02:07:51;;;;;;;1.27;1.27;;;;;;;;;;5067526;28;20641;-64
2023/01/03 02:13:26;;;;;;;1.27;1.20;;;;;;;;;;5061603;28;20190;-64
2023/01/03 02:15:59;;;;;;;1.53;1.40;;;;;;;;;;5051627;28;20199;-64
2023/01/03 02:18:38;;;;;;;1.43;1.40;;;;;;;;;;5062530;28;20211;-64
2023/01/03 02:21:22;;;;;;;1.20;1.20;;;;;;;;;;5065264;28;20252;-65
2023/01/03 02:24:00;;;;;;;1.27;1.27;;;;;;;;;;5050352;28;20215;-64
2023/01/03 02:26:33;;;;;;;1.60;1.07;;;;;;;;;;5060032;28;20704;-63
2023/01/03 02:29:18;;;;;;;1.50;1.40;;;;;;;;;;5068858;28;20229;-63
2023/01/03 02:31:51;;;;;;;1.40;1.40;;;;;;;;;;5067766;28;20219;-64
2023/01/03 02:34:21;;;;;;;1.30;1.30;;;;;;;;;;5051263;28;20362;-63
2023/01/03 02:37:03;;;;;;;1.90;1.40;;;;;;;;;;5068604;28;20202;-64
2023/01/03 02:39:34;;;;;;;1.20;1.20;;;;;;;;;;5069806;28;20305;-64
2023/01/03 02:44:51;;;;;;;1.60;1.50;;;;;;;;;;5068040;28;20656;-64
2023/01/03 02:47:20;;;;;;;5.00;1.77;;;;;;;;;;5050026;28;20199;-63
2023/01/03 02:49:50;;;;;;;1.70;1.60;;;;;;;;;;5050368;28;20211;-64
2023/01/03 02:52:18;;;;;;;5.53;1.77;;;;;;;;;;5067535;28;20233;-63
2023/01/03 02:54:47;;;;;;;1.30;1.30;;;;;;;;;;5052685;28;20206;-64
2023/01/03 02:57:16;;;;;;;2.10;1.47;;;;;;;;;;5063277;28;20227;-64
2023/01/03 02:59:45;;;;;;;1.50;1.50;;;;;;;;;;5055899;28;20668;-63
2023/01/03 03:02:14;;;;;;;2.17;2.00;;;;;;;;;;5069055;28;20207;-64
2023/01/03 03:04:43;;;;;;;1.00;1.00;;;;;;;;;;5057408;28;20735;-64
2023/01/03 03:07:14;;;;;;;1.20;1.20;;;;;;;;;;5062082;28;20211;-63
2023/01/03 03:15:11;;;;;;;1.70;1.60;;;;;;;;;;5062631;28;20232;-64
2023/01/03 03:17:39;;;;;;;1.93;1.80;;;;;;;;;;5060504;28;20244;-63
2023/01/03 03:25:45;;;;;;;1.40;1.40;;;;;;;;;;5065866;28;20280;-64
2023/01/03 03:31:02;;;;;;;3.07;2.00;;;;;;;;;;5067943;28;20225;-64
2023/01/03 03:33:30;;;;;;;1.33;1.33;;;;;;;;;;5061237;28;20200;-64
2023/01/03 03:36:03;;;;;;;1.63;1.60;;;;;;;;;;5052665;28;20211;-64
2023/01/03 03:38:34;;;;;;;2.80;1.57;;;;;;;;;;5062543;28;20204;-64
2023/01/03 03:46:52;;;;;;;1.30;1.30;;;;;;;;;;5068026;28;20198;-64
2023/01/03 03:49:39;;;;;;;1.57;1.47;;;;;;;;;;5068560;28;20649;-63
2023/01/03 03:52:08;;;;;;;1.10;1.10;;;;;;;;;;5073072;28;20226;-64
2023/01/03 03:54:37;;;;;;;1.57;1.57;;;;;;;;;;5070178;28;20199;-64
2023/01/03 03:57:08;;;;;;;1.77;1.70;;;;;;;;;;5051190;28;20578;-64
2023/01/03 03:59:35;;;;;;;1.63;1.53;;;;;;;;;;5055471;28;20203;-64
2023/01/03 04:02:04;;;;;;;1.37;1.23;;;;;;;;;;5070102;28;20666;-64
2023/01/03 04:04:33;;;;;;;1.40;1.40;;;;;;;;;;5066200;28;20568;-63
2023/01/03 04:07:01;;;;;;;1.70;1.67;;;;;;;;;;5070947;28;20219;-63
2023/01/03 04:09:29;;;;;;;1.80;1.70;;;;;;;;;;5052830;28;20235;-63
2023/01/03 04:11:56;;;;;;;1.37;1.27;;;;;;;;;;5054548;28;20232;-64
2023/01/03 04:14:23;;;;;;;1.40;1.37;;;;;;;;;;5053723;28;20261;-63
2023/01/03 04:16:50;;;;;;;1.47;1.40;;;;;;;;;;5053841;28;20250;-63
2023/01/03 04:19:17;;;;;;;1.73;1.63;;;;;;;;;;5070315;28;20304;-63
2023/01/03 04:21:44;;;;;;;1.60;1.50;;;;;;;;;;5065371;28;20666;-63
2023/01/03 04:24:11;;;;;;;1.50;1.50;;;;;;;;;;5061438;28;20211;-64
2023/01/03 04:26:47;;;;;;;1.53;1.50;;;;;;;;;;5055916;28;20204;-64
2023/01/03 04:29:14;;;;;;;1.57;1.53;;;;;;;;;;5052794;28;20670;-64
2023/01/03 04:31:41;;;;;;;1.50;1.50;;;;;;;;;;5063938;28;20223;-64
2023/01/03 04:34:08;;;;;;;1.53;1.43;;;;;;;;;;5053855;28;20681;-63
2023/01/03 04:36:35;;;;;;;1.53;1.50;;;;;;;;;;5052635;28;20253;-63
2023/01/03 04:39:02;;;;;;;1.77;1.57;;;;;;;;;;5059054;28;20206;-64
2023/01/03 04:41:29;;;;;;;1.47;1.47;;;;;;;;;;5052183;28;20215;-64
2023/01/03 04:44:03;;;;;;;5.23;1.57;;;;;;;;;;5068697;28;20265;-63
2023/01/03 04:46:31;;;;;;;2.17;1.63;;;;;;;;;;5063034;28;20210;-63
2023/01/03 04:48:58;;;;;;;2.47;2.33;;;;;;;;;;5061679;28;20259;-64
2023/01/03 04:51:25;;;;;;;2.13;1.93;;;;;;;;;;5071586;28;20229;-64
2023/01/03 04:53:52;;;;;;;3.80;3.10;;;;;;;;;;5057861;28;20199;-64
2023/01/03 04:56:23;;;;;;;3.23;2.93;;;;;;;;;;5069734;28;20227;-63
2023/01/03 04:58:50;;;;;;;4.20;3.00;;;;;;;;;;5061289;28;20207;-64
2023/01/03 05:01:19;;;;;;;2.67;2.50;;;;;;;;;;5053192;28;20208;-63
2023/01/03 05:03:46;;;;;;;3.37;2.50;;;;;;;;;;5054395;28;20211;-64
2023/01/03 05:06:13;;;;;;;3.33;2.93;;;;;;;;;;5051775;28;20207;-63
2023/01/03 05:08:41;;;;;;;2.93;2.73;;;;;;;;;;5064486;28;20230;-63
2023/01/03 05:11:08;;;;;;;2.87;2.57;;;;;;;;;;5063641;28;20266;-64
2023/01/03 05:13:35;;;;;;;4.30;3.37;;;;;;;;;;5062580;28;20199;-63
2023/01/03 05:16:05;;;;;;;3.13;2.83;;;;;;;;;;5068978;28;20204;-64
2023/01/03 05:18:34;;;;;;;2.93;2.70;;;;;;;;;;5071366;28;20637;-64
2023/01/03 05:26:44;;;;;;;2.10;2.03;;;;;;;;;;5060722;28;20209;-64
2023/01/03 05:29:12;;;;;;;2.60;2.40;;;;;;;;;;5059878;28;20670;-63
2023/01/03 05:31:39;;;;;;;3.87;2.70;;;;;;;;;;5055057;28;20697;-63
2023/01/03 05:34:07;;;;;;;1.90;1.80;;;;;;;;;;5051141;28;20246;-64
2023/01/03 05:36:34;;;;;;;1.97;1.87;;;;;;;;;;5058113;28;20729;-63
2023/01/03 05:39:01;;;;;;;1.83;1.73;;;;;;;;;;5051981;28;20564;-63
2023/01/03 05:44:13;;;;;;;3.73;3.10;;;;;;;;;;5064190;28;20561;-63
2023/01/03 05:46:40;;;;;;;2.97;2.73;;;;;;;;;;5050750;28;20265;-64
2023/01/03 05:49:09;;;;;;;3.17;2.90;;;;;;;;;;5055954;28;20195;-64
2023/01/03 05:51:36;;;;;;;3.17;2.67;;;;;;;;;;5059169;28;20227;-64
2023/01/03 05:54:03;;;;;;;3.30;3.03;;;;;;;;;;5067624;28;20578;-64
2023/01/03 05:56:31;;;;;;;7.23;3.70;;;;;;;;;;5066775;28;20272;-64
2023/01/03 05:58:58;;;;;;;3.93;3.40;;;;;;;;;;5058615;28;20290;-63
2023/01/03 06:01:27;;;;;;;4.20;3.60;;;;;;;;;;5068932;28;20199;-64
2023/01/03 06:03:54;;;;;;;4.43;3.10;;;;;;;;;;5066415;28;20199;-63
2023/01/03 06:06:22;;;;;;;2.50;2.33;;;;;;;;;;5069554;28;20210;-64
2023/01/03 06:08:49;;;;;;;2.50;2.30;;;;;;;;;;5055373;28;20231;-63
2023/01/03 06:11:16;;;;;;;2.70;2.43;;;;;;;;;;5051261;28;20678;-63
2023/01/03 06:13:43;;;;;;;2.97;2.77;;;;;;;;;;5066640;28;20199;-63
2023/01/03 06:18:57;;;;;;;2.90;2.60;;;;;;;;;;5053734;28;20693;-63
2023/01/03 06:21:25;;;;;;;4.07;2.30;;;;;;;;;;5059186;28;20261;-63
2023/01/03 06:23:52;;;;;;;2.70;2.50;;;;;;;;;;5054170;28;20213;-63
2023/01/03 06:26:21;;;;;;;2.30;2.00;;;;;;;;;;5069221;28;20207;-63
2023/01/03 06:28:48;;;;;;;1.97;1.87;;;;;;;;;;5059342;28;20296;-63
2023/01/03 06:31:15;;;;;;;3.47;2.70;;;;;;;;;;5062415;28;20230;-63
2023/01/03 06:33:42;;;;;;;2.87;2.67;;;;;;;;;;5069929;28;20564;-63
2023/01/03 06:36:10;;;;;;;3.27;2.97;;;;;;;;;;5068188;28;20211;-64
2023/01/03 06:38:39;;;;;;;2.57;2.37;;;;;;;;;;5049372;28;20210;-63
2023/01/03 06:41:06;;;;;;;2.40;2.20;;;;;;;;;;5049479;28;20204;-63
2023/01/03 06:43:33;;;;;;;2.57;2.37;;;;;;;;;;5060249;28;20214;-63
2023/01/03 06:54:20;;;;;;;1.97;1.87;;;;;;;;;;5057637;28;20236;-63
2023/01/03 06:56:47;;;;;;;2.57;2.37;;;;;;;;;;5053260;28;20222;-64
2023/01/03 06:59:14;;;;;;;1.70;1.53;;;;;;;;;;5053033;28;20202;-64
2023/01/03 07:01:41;;;;;;;2.63;2.43;;;;;;;;;;5055252;28;20221;-64
2023/01/03 07:04:08;;;;;;;2.20;2.10;;;;;;;;;;5061223;28;20208;-64
2023/01/03 07:06:36;;;;;;;1.83;1.73;;;;;;;;;;5063706;28;20207;-64
2023/01/03 07:09:03;;;;;;;1.47;1.37;;;;;;;;;;5054179;28;20329;-64
2023/01/03 07:11:32;;;;;;;1.33;1.30;;;;;;;;;;5052957;28;20571;-64
2023/01/03 07:13:58;;;;;;;1.90;1.80;;;;;;;;;;5057172;28;20198;-64
2023/01/03 07:16:26;;;;;;;1.60;1.60;;;;;;;;;;5068663;28;20233;-64
2023/01/03 07:18:54;;;;;;;1.80;1.70;;;;;;;;;;5064619;28;20586;-64
2023/01/03 07:21:21;;;;;;;1.60;1.50;;;;;;;;;;5050319;28;20204;-64
2023/01/03 07:23:48;;;;;;;1.57;1.57;;;;;;;;;;5053707;28;20211;-64
2023/01/03 07:26:15;;;;;;;1.63;1.53;;;;;;;;;;5053281;28;20218;-64
2023/01/03 07:28:44;;;;;;;3.30;2.53;;;;;;;;;;5053047;28;20203;-64
2023/01/03 07:31:11;;;;;;;1.90;1.80;;;;;;;;;;5064720;28;20234;-64
2023/01/03 07:33:38;;;;;;;1.70;1.60;;;;;;;;;;5073188;28;20209;-64
2023/01/03 07:36:07;;;;;;;1.60;1.50;;;;;;;;;;5073090;28;20243;-64
2023/01/03 07:38:34;;;;;;;2.67;2.33;;;;;;;;;;5071011;28;20212;-64
2023/01/03 07:41:01;;;;;;;3.80;3.30;;;;;;;;;;5066326;28;20203;-64
2023/01/03 07:43:37;;;;;;;3.83;3.30;;;;;;;;;;5053264;28;20697;-64
2023/01/03 07:46:09;;;;;;;3.50;3.20;;;;;;;;;;5065180;28;20206;-64
2023/01/03 07:48:36;;;;;;;5.63;2.63;;;;;;;;;;5072613;28;20203;-64
2023/01/03 07:51:05;;;;;;;2.27;2.17;;;;;;;;;;5059986;28;20214;-64
2023/01/03 07:53:33;;;;;;;2.03;1.93;;;;;;;;;;5063000;28;20215;-64
2023/01/03 07:56:04;;;;;;;7.33;2.63;;;;;;;;;;5072094;28;20276;-64
2023/01/03 07:58:31;;;;;;;3.10;2.20;;;;;;;;;;5064584;28;20206;-64
2023/01/03 08:01:03;;;;;;;3.90;2.47;;;;;;;;;;5063448;28;20213;-64
2023/01/03 08:03:31;;;;;;;3.00;1.90;;;;;;;;;;5058249;28;20204;-63
2023/01/03 08:06:00;;;;;;;1.53;1.53;;;;;;;;;;5053592;28;20413;-63
2023/01/03 08:08:27;;;;;;;1.77;1.67;;;;;;;;;;5064454;28;20207;-61
2023/01/03 08:13:39;;;;;;;2.10;2.00;;;;;;;;;;5059202;28;20205;-62
2023/01/03 08:16:08;;;;;;;2.73;2.33;;;;;;;;;;5060065;28;20260;-62
2023/01/03 08:18:37;;;;;;;2.20;2.10;;;;;;;;;;5059913;28;20258;-65
2023/01/03 08:21:05;;;;;;;1.87;1.77;;;;;;;;;;5052176;28;20242;-62
2023/01/03 08:23:32;;;;;;;3.43;2.50;;;;;;;;;;5049448;28;20211;-62
2023/01/03 08:26:00;;;;;;;5.00;3.90;;;;;;;;;;5069018;28;20294;-62
2023/01/03 08:28:27;;;;;;;3.03;2.83;;;;;;;;;;5071499;28;20207;-62
2023/01/03 08:30:55;;;;;;;2.33;2.17;;;;;;;;;;5053815;28;20739;-62
2023/01/03 08:33:22;;;;;;;3.67;3.37;;;;;;;;;;5052120;28;20223;-64
2023/01/03 08:35:51;;;;;;;4.03;3.63;;;;;;;;;;5051967;28;20213;-62
2023/01/03 08:38:21;;;;;;;9.50;3.70;;;;;;;;;;5051091;28;20204;-62
2023/01/03 08:40:48;;;;;;;6.93;4.83;;;;;;;;;;5051316;28;20249;-62
2023/01/03 08:43:16;;;;;;;21.37;8.20;;;;;;;;;;5051043;28;20217;-65
2023/01/03 08:45:43;;;;;;;18.90;8.33;;;;;;;;;;5051277;28;20708;-62
2023/01/03 08:48:11;;;;;;;16.20;6.40;;;;;;;;;;5051222;28;20638;-64
2023/01/03 08:50:38;;;;;;;9.97;5.07;;;;;;;;;;5050899;28;20205;-63
2023/01/03 08:53:06;;;;;;;7.73;4.67;;;;;;;;;;5051177;28;20307;-63
2023/01/03 08:55:34;;;;;;;10.23;4.97;;;;;;;;;;5066935;28;20250;-63
2023/01/03 08:58:01;;;;;;;14.30;7.37;;;;;;;;;;5066783;28;20214;-63
2023/01/03 09:00:28;;;;;;;5.73;4.17;;;;;;;;;;5068326;28;20206;-63
2023/01/03 09:02:59;;;;;;;2.90;2.60;;;;;;;;;;5060368;28;20712;-63
2023/01/03 09:05:26;;;;;;;4.40;3.27;;;;;;;;;;5070170;28;20614;-63
2023/01/03 09:07:54;;;;;;;4.87;3.07;;;;;;;;;;5062837;28;20622;-63
2023/01/03 09:10:22;;;;;;;6.30;4.40;;;;;;;;;;5051741;28;20267;-64
2023/01/03 09:12:50;;;;;;;4.87;3.73;;;;;;;;;;5064410;28;20604;-63
2023/01/03 09:15:17;;;;;;;5.47;4.23;;;;;;;;;;5051631;28;20294;-65
2023/01/03 09:17:46;;;;;;;4.33;3.50;;;;;;;;;;5060369;28;20214;-63
2023/01/03 09:20:13;;;;;;;4.90;3.77;;;;;;;;;;5052470;28;20211;-63
2023/01/03 09:22:41;;;;;;;6.67;3.80;;;;;;;;;;5054847;28;20611;-63
2023/01/03 09:25:08;;;;;;;6.77;4.67;;;;;;;;;;5059280;28;20586;-63
2023/01/03 09:27:37;;;;;;;3.87;3.57;;;;;;;;;;5052621;28;20199;-64
2023/01/03 09:30:04;;;;;;;3.83;3.53;;;;;;;;;;5067964;28;20210;-63
2023/01/03 09:32:31;;;;;;;11.07;3.87;;;;;;;;;;5050183;28;20235;-64
2023/01/03 09:34:58;;;;;;;4.83;3.87;;;;;;;;;;5050230;28;20300;-63
2023/01/03 09:37:25;;;;;;;5.80;4.07;;;;;;;;;;5050732;28;20549;-63
2023/01/03 09:39:52;;;;;;;8.23;4.37;;;;;;;;;;5060352;28;20257;-63
2023/01/03 09:45:08;;;;;;;5.93;3.93;;;;;;;;;;5062284;28;20267;-63
2023/01/03 09:47:36;;;;;;;5.53;4.00;;;;;;;;;;5051740;28;20212;-63
2023/01/03 09:50:04;;;;;;;5.43;4.30;;;;;;;;;;5050816;28;20248;-63
2023/01/03 10:03:49;;;;;;;3.27;2.97;;;;;;;;;;5068083;28;20277;-63
2023/01/03 10:06:23;;;;;;;2.60;2.40;;;;;;;;;;5070307;28;20230;-63
2023/01/03 10:08:59;;;;;;;3.33;2.40;;;;;;;;;;5060315;28;20965;-63
2023/01/03 10:11:29;;;;;;;3.93;2.90;;;;;;;;;;5068714;28;20574;-64
2023/01/03 10:14:01;;;;;;;2.13;2.00;;;;;;;;;;5068832;28;20768;-63
2023/01/03 10:16:35;;;;;;;3.30;2.60;;;;;;;;;;5069737;28;20285;-63
2023/01/03 10:19:23;;;;;;;2.67;2.47;;;;;;;;;;5058339;28;20203;-64
2023/01/03 10:21:56;;;;;;;4.53;2.27;;;;;;;;;;5046055;28;20257;-64
2023/01/03 10:24:24;;;;;;;1.93;1.93;;;;;;;;;;5049858;28;20238;-65
2023/01/03 10:26:52;;;;;;;1.57;1.57;;;;;;;;;;5049521;28;20705;-65
2023/01/03 10:29:20;;;;;;;1.97;1.87;;;;;;;;;;5059008;28;20211;-66
2023/01/03 10:31:58;;;;;;;2.17;1.97;;;;;;;;;;5069617;28;20211;-65
2023/01/03 10:34:25;;;;;;;1.80;1.70;;;;;;;;;;5068395;28;20211;-65
2023/01/03 10:36:52;;;;;;;2.20;2.10;;;;;;;;;;5065369;28;20219;-66
2023/01/03 10:39:28;;;;;;;2.50;1.80;;;;;;;;;;5056888;28;20321;-67
2023/01/03 10:41:57;;;;;;;1.90;1.80;;;;;;;;;;5059421;28;20226;-67
2023/01/03 10:44:25;;;;;;;1.87;1.80;;;;;;;;;;5059624;28;20202;-67
2023/01/03 10:46:55;;;;;;;1.80;1.70;;;;;;;;;;5058184;28;20204;-64
2023/01/03 10:49:23;;;;;;;3.10;1.97;;;;;;;;;;5049969;28;20836;-64
2023/01/03 10:51:54;;;;;;;1.87;1.77;;;;;;;;;;5051875;28;20212;-65
2023/01/03 10:54:25;;;;;;;2.13;1.80;;;;;;;;;;5049470;28;20212;-65
2023/01/03 10:56:53;;;;;;;1.87;1.73;;;;;;;;;;5064180;28;20230;-67
2023/01/03 10:59:23;;;;;;;1.90;1.70;;;;;;;;;;5069004;28;20211;-65
2023/01/03 11:02:02;;;;;;;2.13;1.83;;;;;;;;;;5047612;28;20211;-66
2023/01/03 11:04:29;;;;;;;3.90;1.70;;;;;;;;;;5058256;28;20289;-68
2023/01/03 11:07:02;;;;;;;1.37;1.37;;;;;;;;;;5062457;28;20272;-66
2023/01/03 11:09:33;;;;;;;2.00;1.50;;;;;;;;;;5062003;28;20228;-66
2023/01/03 11:12:03;;;;;;;2.30;2.20;;;;;;;;;;5058308;28;21006;-65
2023/01/03 11:14:30;;;;;;;2.53;1.80;;;;;;;;;;5066103;28;20306;-65
2023/01/03 11:17:03;;;;;;;3.03;1.93;;;;;;;;;;5067902;28;20236;-64
2023/01/03 11:19:31;;;;;;;1.57;1.47;;;;;;;;;;5056236;28;20309;-65
2023/01/03 11:22:04;;;;;;;2.07;1.97;;;;;;;;;;5049363;28;20203;-66
2023/01/03 11:24:43;;;;;;;1.60;1.50;;;;;;;;;;5047159;28;20231;-66
2023/01/03 11:27:16;;;;;;;1.83;1.73;;;;;;;;;;5055139;28;20202;-65
2023/01/03 11:29:53;;;;;;;2.83;1.80;;;;;;;;;;5064569;28;20203;-65
2023/01/03 11:32:25;;;;;;;1.93;1.77;;;;;;;;;;5057639;28;20222;-65
2023/01/03 11:35:08;;;;;;;2.60;2.40;;;;;;;;;;5066729;28;20230;-66
2023/01/03 11:37:41;;;;;;;2.20;2.10;;;;;;;;;;5067090;28;20724;-66
2023/01/03 11:40:14;;;;;;;1.90;1.80;;;;;;;;;;5052577;28;20713;-66
2023/01/03 11:42:46;;;;;;;2.07;1.80;;;;;;;;;;5062177;28;20214;-67
2023/01/03 11:45:29;;;;;;;1.60;1.50;;;;;;;;;;5063116;28;20662;-66
2023/01/03 11:48:07;;;;;;;1.50;1.40;;;;;;;;;;5066570;28;20199;-66
2023/01/03 11:50:41;;;;;;;1.10;1.00;;;;;;;;;;5068150;28;20232;-65
2023/01/03 11:53:15;;;;;;;2.33;1.13;;;;;;;;;;5068339;28;20885;-65
2023/01/03 11:55:51;;;;;;;1.30;1.20;;;;;;;;;;5063216;28;20332;-65
2023/01/03 11:58:28;;;;;;;2.50;0.90;;;;;;;;;;5062918;28;20272;-64
2023/01/03 12:00:59;;;;;;;1.17;1.13;;;;;;;;;;5068675;28;20207;-66
2023/01/03 12:03:35;;;;;;;1.10;1.10;;;;;;;;;;5056277;28;20196;-63
2023/01/03 12:06:07;;;;;;;1.30;1.10;;;;;;;;;;5053284;28;20224;-63
2023/01/03 12:08:44;;;;;;;2.40;1.03;;;;;;;;;;5060319;28;20295;-64
2023/01/03 12:11:17;;;;;;;0.83;0.83;;;;;;;;;;5056108;28;20202;-65
2023/01/03 12:13:47;;;;;;;7.33;1.07;;;;;;;;;;5072117;28;20276;-66
2023/01/03 12:16:18;;;;;;;1.47;0.83;;;;;;;;;;5072327;28;20213;-66
2023/01/03 12:18:51;;;;;;;0.80;0.80;;;;;;;;;;5063200;28;20265;-66
2023/01/03 12:21:19;;;;;;;2.87;1.10;;;;;;;;;;5055021;28;20207;-66
2023/01/03 12:23:48;;;;;;;0.90;0.90;;;;;;;;;;5052986;28;20776;-65
2023/01/03 12:26:16;;;;;;;5.13;2.33;;;;;;;;;;5054145;28;20211;-69
2023/01/03 12:28:47;;;;;;;14.83;6.03;;;;;;;;;;5055035;28;20575;-66
2023/01/03 12:31:21;;;;;;;9.23;4.50;;;;;;;;;;5072248;28;20207;-63
2023/01/03 12:34:04;;;;;;;7.07;3.40;;;;;;;;;;5054540;28;20220;-66
2023/01/03 12:36:36;;;;;;;4.13;3.20;;;;;;;;;;5052905;28;20203;-66
2023/01/03 12:39:08;;;;;;;3.13;2.80;;;;;;;;;;5063021;28;20207;-63
2023/01/03 12:41:40;;;;;;;3.13;2.57;;;;;;;;;;5062653;28;20219;-65
2023/01/03 12:44:12;;;;;;;2.20;2.10;;;;;;;;;;5057196;28;20200;-65
2023/01/03 12:46:42;;;;;;;1.13;1.13;;;;;;;;;;5055413;28;20221;-66
2023/01/03 12:49:13;;;;;;;2.07;1.97;;;;;;;;;;5051685;28;20208;-65
2023/01/03 12:51:40;;;;;;;2.10;1.90;;;;;;;;;;5051372;28;20196;-68
2023/01/03 12:54:13;;;;;;;3.37;3.07;;;;;;;;;;5049553;28;20277;-66
2023/01/03 12:56:55;;;;;;;1.00;1.00;;;;;;;;;;5055826;28;20226;-67
2023/01/03 12:59:38;;;;;;;1.30;1.20;;;;;;;;;;5071299;28;20235;-68
2023/01/03 13:02:13;;;;;;;3.33;1.30;;;;;;;;;;5056364;28;20206;-68
2023/01/03 13:04:42;;;;;;;1.07;1.07;;;;;;;;;;5049650;28;20200;-66
2023/01/03 13:07:13;;;;;;;0.87;0.87;;;;;;;;;;5059946;28;20203;-68
2023/01/03 13:09:41;;;;;;;5.30;1.20;;;;;;;;;;5065257;28;20722;-66
2023/01/03 13:12:12;;;;;;;0.73;0.73;;;;;;;;;;5058347;28;20666;-66
2023/01/03 13:14:53;;;;;;;1.00;1.00;;;;;;;;;;5052342;28;20231;-67
2023/01/03 13:17:21;;;;;;;1.23;1.23;;;;;;;;;;5061107;28;20298;-67
2023/01/03 13:19:53;;;;;;;2.03;1.53;;;;;;;;;;5061898;28;20231;-67
2023/01/03 13:22:34;;;;;;;1.60;1.50;;;;;;;;;;5068477;28;20214;-67
2023/01/03 13:25:16;;;;;;;0.80;0.80;;;;;;;;;;5057155;28;20254;-67
2023/01/03 13:27:48;;;;;;;1.10;1.10;;;;;;;;;;5049722;28;20220;-67
2023/01/03 13:30:21;;;;;;;1.00;1.00;;;;;;;;;;5050114;28;20599;-66
2023/01/03 13:32:52;;;;;;;1.93;1.20;;;;;;;;;;5049793;28;20681;-66
2023/01/03 13:35:30;;;;;;;2.67;1.13;;;;;;;;;;5049959;28;20208;-66
2023/01/03 13:38:00;;;;;;;1.10;1.10;;;;;;;;;;5059406;28;20253;-67
2023/01/03 13:40:29;;;;;;;1.10;1.10;;;;;;;;;;5050769;28;20400;-71
2023/01/03 13:43:03;;;;;;;1.13;1.13;;;;;;;;;;5058249;28;20199;-66
2023/01/03 13:45:45;;;;;;;2.07;1.00;;;;;;;;;;5056864;28;20234;-68
2023/01/03 13:48:17;;;;;;;2.00;1.30;;;;;;;;;;5047438;28;20207;-68
2023/01/03 13:50:59;;;;;;;0.90;0.90;;;;;;;;;;5057054;28;20208;-67
2023/01/03 13:53:32;;;;;;;2.00;0.93;;;;;;;;;;5050108;28;20234;-68
2023/01/03 13:56:00;;;;;;;1.20;1.20;;;;;;;;;;5055675;28;20227;-67
2023/01/03 13:58:30;;;;;;;1.30;1.20;;;;;;;;;;5070058;28;20211;-67
2023/01/03 14:00:59;;;;;;;2.03;1.20;;;;;;;;;;5059095;28;20211;-68
2023/01/03 14:03:44;;;;;;;2.23;1.17;;;;;;;;;;5058772;28;20226;-67
2023/01/03 14:06:30;;;;;;;2.53;1.30;;;;;;;;;;5069927;28;20272;-67
2023/01/03 14:09:30;;;;;;;2.30;1.20;;;;;;;;;;5053731;28;20238;-67
2023/01/03 14:12:12;;;;;;;2.93;2.27;;;;;;;;;;5007442;28;20205;-66
2023/01/03 14:14:41;;;;;;;2.47;1.70;;;;;;;;;;4999318;28;20225;-67
2023/01/03 14:17:16;;;;;;;1.87;1.70;;;;;;;;;;5035860;28;20206;-67
2023/01/03 14:19:48;;;;;;;2.57;1.47;;;;;;;;;;5061862;28;20643;-67
2023/01/03 14:22:18;;;;;;;1.73;1.63;;;;;;;;;;5049591;28;20247;-67
2023/01/03 14:24:47;;;;;;;3.93;3.07;;;;;;;;;;5049510;28;20577;-67
2023/01/03 14:27:15;;;;;;;7.03;3.37;;;;;;;;;;5049916;28;20208;-67
2023/01/03 14:29:48;;;;;;;9.30;5.13;;;;;;;;;;5056698;28;20285;-67
2023/01/03 14:32:19;;;;;;;3.47;2.87;;;;;;;;;;5059329;28;20200;-67
2023/01/03 14:34:46;;;;;;;2.53;2.00;;;;;;;;;;5049668;28;20246;-67
2023/01/03 14:37:15;;;;;;;2.77;2.10;;;;;;;;;;5062575;28;20210;-67
2023/01/03 14:39:51;;;;;;;2.73;2.53;;;;;;;;;;5063892;28;20739;-67
2023/01/03 14:42:18;;;;;;;8.23;3.23;;;;;;;;;;5059567;28;20215;-66
2023/01/03 14:44:51;;;;;;;5.47;2.70;;;;;;;;;;5050900;28;20196;-66
2023/01/03 14:47:18;;;;;;;5.43;3.03;;;;;;;;;;5064832;28;20669;-67
2023/01/03 14:49:47;;;;;;;7.00;3.40;;;;;;;;;;5051045;28;20208;-66
2023/01/03 14:52:17;;;;;;;2.30;1.50;;;;;;;;;;5049079;28;20207;-66
2023/01/03 14:54:46;;;;;;;1.40;1.30;;;;;;;;;;5048804;28;20235;-67
2023/01/03 14:57:17;;;;;;;1.40;1.30;;;;;;;;;;5062151;28;20219;-67
2023/01/03 14:59:45;;;;;;;1.00;1.00;;;;;;;;;;5053744;28;20210;-69
2023/01/03 15:02:14;;;;;;;1.60;1.50;;;;;;;;;;5048523;28;20315;-66
2023/01/03 15:04:44;;;;;;;3.00;2.73;;;;;;;;;;5050785;28;20203;-68
2023/01/03 15:07:23;;;;;;;5.53;5.07;;;;;;;;;;5048685;28;20678;-62
2023/01/03 15:09:51;;;;;;;5.67;3.20;;;;;;;;;;5054422;28;20227;-66
2023/01/03 15:12:19;;;;;;;8.17;6.13;;;;;;;;;;5060470;28;20215;-67
2023/01/03 15:14:46;;;;;;;3.17;1.80;;;;;;;;;;5068484;28;20237;-67
2023/01/03 15:17:18;;;;;;;1.10;1.10;;;;;;;;;;5049349;28;20212;-66
2023/01/03 15:19:48;;;;;;;1.63;1.53;;;;;;;;;;5047578;28;20298;-65
2023/01/03 15:22:25;;;;;;;1.63;1.53;;;;;;;;;;5067448;28;20206;-65
2023/01/03 15:24:55;;;;;;;3.17;1.93;;;;;;;;;;5066154;28;20205;-66
2023/01/03 15:27:49;;;;;;;3.80;2.23;;;;;;;;;;5066047;28;20196;-66
2023/01/03 15:30:21;;;;;;;1.93;1.83;;;;;;;;;;5024510;28;20207;-66
2023/01/03 15:33:00;;;;;;;1.30;1.30;;;;;;;;;;5049514;28;20227;-66
2023/01/03 15:35:32;;;;;;;2.50;2.30;;;;;;;;;;5068405;28;20234;-65
2023/01/03 15:38:00;;;;;;;1.93;1.83;;;;;;;;;;5058518;28;20211;-66
2023/01/03 15:40:27;;;;;;;1.43;1.33;;;;;;;;;;5048161;28;20713;-66
2023/01/03 15:45:39;;;;;;;1.10;1.00;;;;;;;;;;5052417;28;20206;-65
2023/01/03 15:48:09;;;;;;;1.50;1.40;;;;;;;;;;5065122;28;20207;-66
2023/01/03 15:50:41;;;;;;;1.67;1.33;;;;;;;;;;5055651;28;20760;-63
2023/01/03 15:53:17;;;;;;;2.10;1.10;;;;;;;;;;5065050;28;20203;-67
2023/01/03 15:55:44;;;;;;;1.37;0.87;;;;;;;;;;5068561;28;20269;-66
2023/01/03 15:58:11;;;;;;;1.80;1.20;;;;;;;;;;5072270;28;20203;-66
2023/01/03 16:00:38;;;;;;;1.00;1.00;;;;;;;;;;5070988;28;20209;-64
2023/01/03 16:03:05;;;;;;;3.07;1.03;;;;;;;;;;5072336;28;20320;-64
2023/01/03 16:05:34;;;;;;;1.17;1.07;;;;;;;;;;5054602;28;20203;-64
2023/01/03 16:08:01;;;;;;;0.97;0.90;;;;;;;;;;5053093;28;20653;-61